createdAt,value
2023-03-24T00:00:24.177Z,11.37
2023-03-24T00:02:52.096Z,10.63
2023-03-24T00:05:20.950Z,9.70
2023-03-24T00:10:20.714Z,9.57
2023-03-24T00:12:48.601Z,10.60
2023-03-24T00:15:19.058Z,11.50
2023-03-24T00:17:50.550Z,11.37
2023-03-24T00:20:22.013Z,10.67
2023-03-24T00:22:51.128Z,9.87
2023-03-24T00:25:19.197Z,9.37
2023-03-24T00:27:49.093Z,7.10
2023-03-24T00:30:17.566Z,7.07
2023-03-24T00:32:45.214Z,7.90
2023-03-24T00:35:39.442Z,7.27
2023-03-24T00:38:06.716Z,6.30
2023-03-24T00:40:34.025Z,7.13
2023-03-24T00:43:01.785Z,6.73
2023-03-24T00:45:29.344Z,7.27
2023-03-24T00:47:57.931Z,7.07
2023-03-24T00:50:26.674Z,6.70
2023-03-24T00:52:54.909Z,6.60
2023-03-24T00:55:23.253Z,6.07
2023-03-24T00:57:51.235Z,6.87
2023-03-24T01:00:24.085Z,6.53
2023-03-24T01:02:54.284Z,6.20
2023-03-24T01:05:22.557Z,6.63
2023-03-24T01:07:52.412Z,6.30
2023-03-24T01:10:21.768Z,5.77
2023-03-24T01:12:49.106Z,5.47
2023-03-24T01:15:18.575Z,7.50
2023-03-24T01:17:47.227Z,7.47
2023-03-24T01:20:14.662Z,8.50
2023-03-24T01:22:45.057Z,7.70
2023-03-24T01:25:16.779Z,6.70
2023-03-24T01:27:44.774Z,6.47
2023-03-24T01:30:15.205Z,6.10
2023-03-24T01:32:42.495Z,6.00
2023-03-24T01:35:09.865Z,6.10
2023-03-24T01:37:37.142Z,5.63
2023-03-24T01:40:08.975Z,5.43
2023-03-24T01:42:36.854Z,5.73
2023-03-24T01:45:24.058Z,5.20
2023-03-24T01:47:51.343Z,5.33
2023-03-24T01:50:18.737Z,5.77
2023-03-24T01:52:45.939Z,5.47
2023-03-24T01:55:18.667Z,5.40
2023-03-24T01:57:52.551Z,5.30
2023-03-24T02:00:21.154Z,5.70
2023-03-24T02:02:59.610Z,5.27
2023-03-24T02:05:30.419Z,6.50
2023-03-24T02:08:13.084Z,6.70
2023-03-24T02:10:41.124Z,7.30
2023-03-24T02:13:10.339Z,7.80
2023-03-24T02:15:42.639Z,8.07
2023-03-24T02:18:13.486Z,9.17
2023-03-24T02:20:58.155Z,8.40
2023-03-24T02:23:35.872Z,8.20
2023-03-24T02:26:21.769Z,8.70
2023-03-24T02:28:55.919Z,8.10
2023-03-24T02:31:41.931Z,7.90
2023-03-24T02:34:17.933Z,7.50
2023-03-24T02:36:54.670Z,7.27
2023-03-24T02:39:24.944Z,6.40
2023-03-24T02:41:58.376Z,7.10
2023-03-24T02:44:37.169Z,6.70
2023-03-24T02:47:11.578Z,6.73
2023-03-24T02:49:57.433Z,5.70
2023-03-24T02:52:41.164Z,6.17
2023-03-24T02:55:17.458Z,6.00
2023-03-24T02:57:51.028Z,5.87
2023-03-24T03:00:21.391Z,5.10
2023-03-24T03:02:56.794Z,5.27
2023-03-24T03:05:30.154Z,6.13
2023-03-24T03:07:58.529Z,7.23
2023-03-24T03:10:27.980Z,6.97
2023-03-24T03:12:57.436Z,6.90
2023-03-24T03:15:27.233Z,6.90
2023-03-24T03:18:10.520Z,6.50
2023-03-24T03:20:50.992Z,6.57
2023-03-24T03:23:21.099Z,5.90
2023-03-24T03:25:51.767Z,6.73
2023-03-24T03:28:21.976Z,7.63
2023-03-24T03:30:53.890Z,6.63
2023-03-24T03:33:25.702Z,7.17
2023-03-24T03:35:52.979Z,7.87
2023-03-24T03:38:25.620Z,6.87
2023-03-24T03:40:55.742Z,6.70
2023-03-24T03:43:23.849Z,6.90
2023-03-24T03:45:51.197Z,7.07
2023-03-24T03:48:18.852Z,7.37
2023-03-24T03:50:46.920Z,7.03
2023-03-24T03:53:16.147Z,6.93
2023-03-24T03:55:44.478Z,7.13
2023-03-24T03:58:12.096Z,7.27
2023-03-24T04:00:39.906Z,7.87
2023-03-24T04:03:25.930Z,7.80
2023-03-24T04:06:01.893Z,7.23
2023-03-24T04:08:47.825Z,7.30
2023-03-24T04:11:22.812Z,6.50
2023-03-24T04:14:05.330Z,7.37
2023-03-24T04:16:40.088Z,6.63
2023-03-24T04:19:13.413Z,7.17
2023-03-24T04:21:43.476Z,6.67
2023-03-24T04:24:13.662Z,7.37
2023-03-24T04:26:45.406Z,7.13
2023-03-24T04:29:18.269Z,7.00
2023-03-24T04:31:49.425Z,6.57
2023-03-24T04:34:29.368Z,7.00
2023-03-24T04:37:26.008Z,6.40
2023-03-24T04:39:58.713Z,6.17
2023-03-24T04:42:36.063Z,5.90
2023-03-24T04:45:04.222Z,6.53
2023-03-24T04:47:33.227Z,6.60
2023-03-24T04:50:04.790Z,6.37
2023-03-24T04:52:31.994Z,6.60
2023-03-24T04:54:59.252Z,6.90
2023-03-24T04:57:26.654Z,7.10
2023-03-24T04:59:53.987Z,6.97
2023-03-24T05:02:21.909Z,6.93
2023-03-24T05:04:49.156Z,7.37
2023-03-24T05:07:17.369Z,7.00
2023-03-24T05:09:44.607Z,6.83
2023-03-24T05:12:13.038Z,6.90
2023-03-24T05:14:40.249Z,7.07
2023-03-24T05:17:07.438Z,7.20
2023-03-24T05:19:34.627Z,7.43
2023-03-24T05:22:02.007Z,7.63
2023-03-24T05:24:29.287Z,7.60
2023-03-24T05:26:56.481Z,8.40
2023-03-24T05:29:23.650Z,8.70
2023-03-24T05:31:50.936Z,8.20
2023-03-24T05:34:18.156Z,8.93
2023-03-24T05:36:45.894Z,8.33
2023-03-24T05:39:13.060Z,8.60
2023-03-24T05:41:40.241Z,7.77
2023-03-24T05:44:07.429Z,8.07
2023-03-24T05:46:34.619Z,7.20
2023-03-24T05:49:01.945Z,7.47
2023-03-24T05:51:29.155Z,7.40
2023-03-24T05:53:56.970Z,7.53
2023-03-24T05:56:24.231Z,7.43
2023-03-24T05:58:51.565Z,7.70
2023-03-24T06:01:19.456Z,7.67
2023-03-24T06:03:46.963Z,7.10
2023-03-24T06:06:15.004Z,6.63
2023-03-24T06:08:45.167Z,6.60
2023-03-24T06:11:12.934Z,6.33
2023-03-24T06:13:40.398Z,6.50
2023-03-24T06:16:08.337Z,6.57
2023-03-24T06:18:35.617Z,8.50
2023-03-24T06:21:03.783Z,6.40
2023-03-24T06:23:30.997Z,6.13
2023-03-24T06:26:04.486Z,5.53
2023-03-24T06:28:34.584Z,7.30
2023-03-24T06:31:01.891Z,6.10
2023-03-24T06:33:29.919Z,6.00
2023-03-24T06:35:57.192Z,5.93
2023-03-24T06:38:24.826Z,6.53
2023-03-24T06:40:52.015Z,4.80
2023-03-24T06:43:19.198Z,4.83
2023-03-24T06:45:46.715Z,4.90
2023-03-24T06:48:14.089Z,5.40
2023-03-24T06:50:41.574Z,5.20
2023-03-24T06:53:08.791Z,4.37
2023-03-24T06:55:36.533Z,5.13
2023-03-24T06:58:03.801Z,5.47
2023-03-24T07:00:31.072Z,5.10
2023-03-24T07:02:58.455Z,5.03
2023-03-24T07:05:25.741Z,6.13
2023-03-24T07:08:29.664Z,5.97
2023-03-24T07:10:41.067Z,5.60
2023-03-24T07:13:08.541Z,5.30
2023-03-24T07:15:36.354Z,5.60
2023-03-24T07:18:03.650Z,6.57
2023-03-24T07:20:31.010Z,5.03
2023-03-24T07:22:58.876Z,4.93
2023-03-24T07:25:26.175Z,5.00
2023-03-24T07:27:56.532Z,5.30
2023-03-24T07:30:29.976Z,5.10
2023-03-24T07:33:02.108Z,4.87
2023-03-24T07:35:29.514Z,5.68
2023-03-24T07:38:00.375Z,5.20
2023-03-24T07:40:27.713Z,5.60
2023-03-24T07:42:55.044Z,4.60
2023-03-24T07:45:22.562Z,4.78
2023-03-24T07:47:49.823Z,4.20
2023-03-24T07:50:17.392Z,6.93
2023-03-24T07:52:48.704Z,5.17
2023-03-24T07:55:16.101Z,4.30
2023-03-24T07:57:43.742Z,5.07
2023-03-24T08:00:20.557Z,4.87
2023-03-24T08:02:49.171Z,4.40
2023-03-24T08:05:18.552Z,5.13
2023-03-24T08:07:53.460Z,4.43
2023-03-24T08:10:22.855Z,5.03
2023-03-24T08:12:50.090Z,5.50
2023-03-24T08:15:17.617Z,4.80
2023-03-24T08:17:45.586Z,4.82
2023-03-24T08:20:15.324Z,4.88
2023-03-24T08:22:43.762Z,4.85
2023-03-24T08:25:12.411Z,7.60
2023-03-24T08:27:43.469Z,5.32
2023-03-24T08:30:11.437Z,5.30
2023-03-24T08:32:38.671Z,5.30
2023-03-24T08:35:06.044Z,5.18
2023-03-24T08:37:33.268Z,4.40
2023-03-24T08:40:05.764Z,5.05
2023-03-24T08:42:33.012Z,4.03
2023-03-24T08:45:00.567Z,4.68
2023-03-24T08:47:29.550Z,15.70
2023-03-24T08:49:58.066Z,5.30
2023-03-24T08:52:26.060Z,5.03
2023-03-24T08:54:53.638Z,4.32
2023-03-24T08:57:21.858Z,3.85
2023-03-24T08:59:51.245Z,4.20
2023-03-24T09:02:18.859Z,3.78
2023-03-24T09:04:46.190Z,5.82
2023-03-24T09:07:13.449Z,6.68
2023-03-24T09:09:40.733Z,6.95
2023-03-24T09:12:10.045Z,4.25
2023-03-24T09:14:37.279Z,6.95
2023-03-24T09:17:04.521Z,3.75
2023-03-24T09:19:32.133Z,5.25
2023-03-24T09:21:59.344Z,4.25
2023-03-24T09:24:26.583Z,3.67
2023-03-24T09:26:53.870Z,4.13
2023-03-24T09:29:21.476Z,4.20
2023-03-24T09:31:48.827Z,7.53
2023-03-24T09:34:16.902Z,5.90
2023-03-24T09:36:44.095Z,5.78
2023-03-24T09:39:11.301Z,5.57
2023-03-24T09:41:38.499Z,6.43
2023-03-24T09:44:10.267Z,5.70
2023-03-24T09:46:51.992Z,5.05
2023-03-24T09:49:24.758Z,4.43
2023-03-24T09:51:54.845Z,4.45
2023-03-24T09:54:27.332Z,4.28
2023-03-24T09:56:56.018Z,4.85
2023-03-24T09:59:29.317Z,4.03
2023-03-24T10:01:57.395Z,4.00
2023-03-24T10:04:27.182Z,5.13
2023-03-24T10:07:07.153Z,4.32
2023-03-24T10:09:37.443Z,4.00
2023-03-24T10:12:22.841Z,3.92
2023-03-24T10:14:58.942Z,3.50
2023-03-24T10:17:32.038Z,4.05
2023-03-24T10:20:07.666Z,4.20
2023-03-24T10:22:43.448Z,4.20
2023-03-24T10:25:23.764Z,4.20
2023-03-24T10:27:53.703Z,4.22
2023-03-24T10:30:27.083Z,4.28
2023-03-24T10:32:57.475Z,4.38
2023-03-24T10:35:36.023Z,5.53
2023-03-24T10:38:04.986Z,4.43
2023-03-24T10:40:33.866Z,5.22
2023-03-24T10:43:06.987Z,4.00
2023-03-24T10:45:38.330Z,4.68
2023-03-24T10:48:05.777Z,4.03
2023-03-24T10:50:36.071Z,4.03
2023-03-24T10:53:09.880Z,4.20
2023-03-24T10:55:43.589Z,3.95
2023-03-24T10:58:36.930Z,4.80
2023-03-24T11:01:04.631Z,4.47
2023-03-24T11:03:33.754Z,4.10
2023-03-24T11:06:02.398Z,4.25
2023-03-24T11:08:37.380Z,4.57
2023-03-24T11:11:15.312Z,3.92
2023-03-24T11:13:42.926Z,4.43
2023-03-24T11:16:14.950Z,4.38
2023-03-24T11:19:08.745Z,3.45
2023-03-24T11:21:37.291Z,4.28
2023-03-24T11:24:10.416Z,4.45
2023-03-24T11:26:41.342Z,5.65
2023-03-24T11:29:23.171Z,4.78
2023-03-24T11:31:58.439Z,4.00
2023-03-24T11:34:34.158Z,4.65
2023-03-24T11:37:24.794Z,4.30
2023-03-24T11:40:16.830Z,3.80
2023-03-24T11:42:46.190Z,7.05
2023-03-24T11:45:23.038Z,4.70
2023-03-24T11:47:52.809Z,4.35
2023-03-24T11:50:23.820Z,3.90
2023-03-24T11:52:54.929Z,3.72
2023-03-24T11:55:31.921Z,3.97
2023-03-24T11:58:04.566Z,4.55
2023-03-24T12:00:38.693Z,3.67
2023-03-24T12:03:24.318Z,3.65
2023-03-24T12:05:54.335Z,3.83
2023-03-24T12:08:24.729Z,3.95
2023-03-24T12:11:10.504Z,3.50
2023-03-24T12:13:40.499Z,5.65
2023-03-24T12:16:33.879Z,4.03
2023-03-24T12:19:07.155Z,4.15
2023-03-24T12:21:34.375Z,3.03
2023-03-24T12:24:07.110Z,3.17
2023-03-24T12:26:35.650Z,3.22
2023-03-24T12:29:03.070Z,3.10
2023-03-24T12:31:30.442Z,3.03
2023-03-24T12:34:16.899Z,2.78
2023-03-24T12:36:50.080Z,3.08
2023-03-24T12:39:29.320Z,2.13
2023-03-24T12:41:59.342Z,1.90
2023-03-24T12:44:26.570Z,2.25
2023-03-24T12:47:06.622Z,1.67
2023-03-24T12:49:39.679Z,1.73
2023-03-24T12:52:09.972Z,1.90
2023-03-24T12:54:46.095Z,1.77
2023-03-24T12:57:15.453Z,2.33
2023-03-24T12:59:46.026Z,2.10
2023-03-24T13:02:13.269Z,2.15
2023-03-24T13:04:42.276Z,2.50
2023-03-24T13:07:12.033Z,2.08
2023-03-24T13:09:59.460Z,1.80
2023-03-24T13:12:26.831Z,1.45
2023-03-24T13:14:53.995Z,1.63
2023-03-24T13:17:24.914Z,1.88
2023-03-24T13:19:52.742Z,2.55
2023-03-24T13:22:21.476Z,2.25
2023-03-24T13:24:49.224Z,1.73
2023-03-24T13:27:20.671Z,2.08
2023-03-24T13:29:57.433Z,2.13
2023-03-24T13:32:43.518Z,2.47
2023-03-24T13:35:15.181Z,1.38
2023-03-24T13:37:51.819Z,1.70
2023-03-24T13:40:24.021Z,1.50
2023-03-24T13:43:10.089Z,1.30
2023-03-24T13:45:42.359Z,1.40
2023-03-24T13:48:12.728Z,1.50
2023-03-24T13:51:03.017Z,1.10
2023-03-24T13:53:37.525Z,1.50
2023-03-24T13:56:05.946Z,2.78
2023-03-24T13:58:47.249Z,1.67
2023-03-24T14:01:14.507Z,1.45
2023-03-24T14:03:45.822Z,1.90
2023-03-24T14:06:17.653Z,1.55
2023-03-24T14:08:54.162Z,1.60
2023-03-24T14:11:34.329Z,1.10
2023-03-24T14:14:18.472Z,1.30
2023-03-24T14:17:04.411Z,1.20
2023-03-24T14:19:39.463Z,1.42
2023-03-24T14:22:12.972Z,1.50
2023-03-24T14:24:42.229Z,1.40
2023-03-24T14:27:27.571Z,1.88
2023-03-24T14:29:54.896Z,1.70
2023-03-24T14:32:23.272Z,4.18
2023-03-24T14:35:00.408Z,2.10
2023-03-24T14:37:28.248Z,1.75
2023-03-24T14:39:59.658Z,1.23
2023-03-24T14:42:33.012Z,1.95
2023-03-24T14:45:03.386Z,2.22
2023-03-24T14:47:34.504Z,1.98
2023-03-24T14:50:04.004Z,1.77
2023-03-24T14:52:52.292Z,1.67
2023-03-24T14:55:20.396Z,2.00
2023-03-24T14:57:50.281Z,2.35
2023-03-24T15:00:23.752Z,2.08
2023-03-24T15:02:57.082Z,2.00
2023-03-24T15:05:31.163Z,1.25
2023-03-24T15:08:18.402Z,1.70
2023-03-24T15:11:03.000Z,1.63
2023-03-24T15:13:32.257Z,1.90
2023-03-24T15:16:00.044Z,2.50
2023-03-24T15:18:27.377Z,1.90
2023-03-24T15:20:54.798Z,2.40
2023-03-24T15:23:23.581Z,1.88
2023-03-24T15:25:52.645Z,2.40
2023-03-24T15:28:31.526Z,4.65
2023-03-24T15:30:59.532Z,3.03
2023-03-24T15:33:30.782Z,2.70
2023-03-24T15:36:02.236Z,3.33
2023-03-24T15:38:33.537Z,3.65
2023-03-24T15:41:01.064Z,2.80
2023-03-24T15:43:28.814Z,2.20
2023-03-24T15:46:11.069Z,3.53
2023-03-24T15:48:39.638Z,2.63
2023-03-24T15:51:09.347Z,3.22
2023-03-24T15:53:39.501Z,2.67
2023-03-24T15:56:14.986Z,2.33
2023-03-24T15:58:53.096Z,3.33
2023-03-24T16:01:31.581Z,2.95
2023-03-24T16:04:01.348Z,3.55
2023-03-24T16:06:30.653Z,3.35
2023-03-24T16:09:01.991Z,4.65
2023-03-24T16:11:29.566Z,3.17
2023-03-24T16:13:57.373Z,2.47
2023-03-24T16:16:24.831Z,2.70
2023-03-24T16:18:52.181Z,1.98
2023-03-24T16:21:27.098Z,2.17
2023-03-24T16:23:55.401Z,2.20
2023-03-24T16:26:27.571Z,2.80
2023-03-24T16:28:57.910Z,3.45
2023-03-24T16:31:26.789Z,3.35
2023-03-24T16:33:56.576Z,2.30
2023-03-24T16:36:28.255Z,2.38
2023-03-24T16:38:56.362Z,2.00
2023-03-24T16:41:23.670Z,2.83
2023-03-24T16:43:51.045Z,2.30
2023-03-24T16:46:27.643Z,3.00
2023-03-24T16:48:55.491Z,2.80
2023-03-24T16:51:22.905Z,4.05
2023-03-24T16:53:50.484Z,4.28
2023-03-24T16:56:19.049Z,3.78
2023-03-24T16:58:50.169Z,4.30
2023-03-24T17:01:26.974Z,4.38
2023-03-24T17:03:55.830Z,5.70
2023-03-24T17:06:23.777Z,5.90
2023-03-24T17:08:51.048Z,7.43
2023-03-24T17:11:21.099Z,8.70
2023-03-24T17:13:48.347Z,7.07
2023-03-24T17:16:16.608Z,5.13
2023-03-24T17:18:43.947Z,5.47
2023-03-24T17:21:13.862Z,5.63
2023-03-24T17:23:41.396Z,7.07
2023-03-24T17:26:08.769Z,5.68
2023-03-24T17:28:36.088Z,4.50
2023-03-24T17:31:03.482Z,5.65
2023-03-24T17:33:31.067Z,25.08
2023-03-24T17:35:58.326Z,17.40
2023-03-24T17:38:27.265Z,23.50
2023-03-24T17:41:04.119Z,17.35
2023-03-24T17:43:31.580Z,13.43
2023-03-24T17:45:59.179Z,9.15
2023-03-24T17:48:27.007Z,9.77
2023-03-24T17:50:54.364Z,11.63
2023-03-24T17:53:25.684Z,16.17
2023-03-24T17:55:53.717Z,12.70
2023-03-24T17:58:21.459Z,12.10
2023-03-24T18:00:49.269Z,10.20
2023-03-24T18:03:17.238Z,8.70
2023-03-24T18:05:44.949Z,6.32
2023-03-24T18:08:12.478Z,5.25
2023-03-24T18:10:39.738Z,4.88
2023-03-24T18:13:07.700Z,5.22
2023-03-24T18:15:35.066Z,4.75
2023-03-24T18:18:02.557Z,4.68
2023-03-24T18:20:30.141Z,4.78
2023-03-24T18:22:57.431Z,4.45
2023-03-24T18:25:24.701Z,5.80
2023-03-24T18:27:52.196Z,5.90
2023-03-24T18:30:19.480Z,5.45
2023-03-24T18:32:46.832Z,10.52
2023-03-24T18:35:16.901Z,13.50
2023-03-24T18:37:44.488Z,8.48
2023-03-24T18:40:12.349Z,6.25
2023-03-24T18:42:39.754Z,5.82
2023-03-24T18:45:08.263Z,5.53
2023-03-24T18:47:35.537Z,5.87
2023-03-24T18:50:02.849Z,5.70
2023-03-24T18:52:30.160Z,6.10
2023-03-24T18:54:57.471Z,5.83
2023-03-24T18:57:24.840Z,6.20
2023-03-24T18:59:53.233Z,5.93
2023-03-24T19:02:20.834Z,6.60
2023-03-24T19:04:48.322Z,7.97
2023-03-24T19:07:16.430Z,6.77
2023-03-24T19:09:43.780Z,6.37
2023-03-24T19:12:11.026Z,7.07
2023-03-24T19:14:38.377Z,6.73
2023-03-24T19:17:06.959Z,6.43
2023-03-24T19:19:34.287Z,7.37
2023-03-24T19:22:01.714Z,6.93
2023-03-24T19:24:29.315Z,8.97
2023-03-24T19:26:56.732Z,8.83
2023-03-24T19:29:24.070Z,9.30
2023-03-24T19:31:51.410Z,10.07
2023-03-24T19:34:18.636Z,9.17
2023-03-24T19:36:48.452Z,7.33
2023-03-24T19:39:18.073Z,6.57
2023-03-24T19:41:45.353Z,7.23
2023-03-24T19:44:12.536Z,8.00
2023-03-24T19:46:40.120Z,7.50
2023-03-24T19:49:07.597Z,8.70
2023-03-24T19:51:34.842Z,8.27
2023-03-24T19:54:02.057Z,7.17
2023-03-24T19:56:29.314Z,7.20
2023-03-24T19:58:56.703Z,6.50
2023-03-24T20:01:24.102Z,6.03
2023-03-24T20:03:51.599Z,5.13
2023-03-24T20:06:19.970Z,5.70
2023-03-24T20:08:47.255Z,4.97
2023-03-24T20:11:14.474Z,5.50
2023-03-24T20:13:41.926Z,5.43
2023-03-24T20:16:09.288Z,5.73
2023-03-24T20:18:36.678Z,5.47
2023-03-24T20:21:06.255Z,6.63
2023-03-24T20:23:33.708Z,6.50
2023-03-24T20:26:01.693Z,6.60
2023-03-24T20:28:29.316Z,7.07
2023-03-24T20:31:00.651Z,5.93
2023-03-24T20:33:28.798Z,5.30
2023-03-24T20:35:56.965Z,6.27
2023-03-24T20:38:24.991Z,6.67
2023-03-24T20:41:19.757Z,6.40
2023-03-24T20:43:46.966Z,5.40
2023-03-24T20:46:17.643Z,5.80
2023-03-24T20:48:45.627Z,5.63
2023-03-24T20:51:13.463Z,5.33
2023-03-24T20:53:40.790Z,5.97
2023-03-24T20:56:09.060Z,5.10
2023-03-24T20:58:37.969Z,4.93
2023-03-24T21:01:09.045Z,5.17
2023-03-24T21:03:36.854Z,4.77
2023-03-24T21:06:04.385Z,5.07
2023-03-24T21:08:31.585Z,5.07
2023-03-24T21:10:59.277Z,5.67
2023-03-24T21:13:37.075Z,4.70
2023-03-24T21:16:09.136Z,4.90
2023-03-24T21:18:37.344Z,5.90
2023-03-24T21:21:05.126Z,6.83
2023-03-24T21:23:34.374Z,8.20
2023-03-24T21:26:03.003Z,7.90
2023-03-24T21:28:31.058Z,8.83
2023-03-24T21:30:58.776Z,8.07
2023-03-24T21:33:26.648Z,11.00
2023-03-24T21:35:56.124Z,10.40
2023-03-24T21:38:23.436Z,11.40
2023-03-24T21:41:00.800Z,12.80
2023-03-24T21:43:29.265Z,9.80
2023-03-24T21:46:00.042Z,9.20
2023-03-24T21:48:27.814Z,10.90
2023-03-24T21:50:55.932Z,8.40
2023-03-24T21:53:26.175Z,8.43
2023-03-24T21:55:54.560Z,7.83
2023-03-24T21:58:22.272Z,6.77
2023-03-24T22:00:50.182Z,8.00
2023-03-24T22:03:17.655Z,9.60
2023-03-24T22:05:44.889Z,9.40
2023-03-24T22:08:12.267Z,8.57
2023-03-24T22:10:43.177Z,8.77
2023-03-24T22:13:10.747Z,9.30
2023-03-24T22:15:38.524Z,9.03
2023-03-24T22:18:05.999Z,10.10
2023-03-24T22:20:33.539Z,8.77
2023-03-24T22:23:03.481Z,9.83
2023-03-24T22:25:31.271Z,9.70
2023-03-24T22:27:58.486Z,9.30
2023-03-24T22:30:25.732Z,7.97
2023-03-24T22:32:52.939Z,7.13
2023-03-24T22:35:21.354Z,6.20
2023-03-24T22:37:48.663Z,8.63
2023-03-24T22:40:15.900Z,9.57
2023-03-24T22:42:43.075Z,9.40
2023-03-24T22:45:10.658Z,8.43
2023-03-24T22:47:37.846Z,8.50
2023-03-24T22:50:05.354Z,8.97
2023-03-24T22:52:32.610Z,8.50
2023-03-24T22:54:59.858Z,7.27
2023-03-24T22:57:27.349Z,7.37
2023-03-24T22:59:54.681Z,7.40
2023-03-24T23:02:24.611Z,7.37
2023-03-24T23:04:52.074Z,7.43
2023-03-24T23:07:22.412Z,7.43
2023-03-24T23:09:50.222Z,7.70
2023-03-24T23:12:17.542Z,8.00
2023-03-24T23:14:46.558Z,9.43
2023-03-24T23:17:15.867Z,9.60
2023-03-24T23:19:43.602Z,7.20
2023-03-24T23:22:11.291Z,6.33
2023-03-24T23:24:39.643Z,6.50
2023-03-24T23:27:07.426Z,6.73
2023-03-24T23:29:34.698Z,6.90
2023-03-24T23:32:01.942Z,6.33
2023-03-24T23:34:29.158Z,7.10
2023-03-24T23:36:56.846Z,7.13
2023-03-24T23:39:24.128Z,7.47
2023-03-24T23:41:51.346Z,6.97
2023-03-24T23:44:19.921Z,6.87
2023-03-24T23:46:47.256Z,6.50
2023-03-24T23:49:14.544Z,6.50
2023-03-24T23:51:41.777Z,6.40
2023-03-24T23:54:09.208Z,7.17
2023-03-24T23:56:37.439Z,6.47
2023-03-24T23:59:05.701Z,6.47
